sensor_id;sensor_type;location;lat;lon;timestamp;P1;durP1;ratioP1;P2;durP2;ratioP2
20861;SDS011;10591;52.532;13.348;2023-08-06T00:01:40;14.58;;;13.13;;
20861;SDS011;10591;52.532;13.348;2023-08-06T00:04:11;15.48;;;13.90;;
20861;SDS011;10591;52.532;13.348;2023-08-06T00:06:42;15.95;;;13.58;;
20861;SDS011;10591;52.532;13.348;2023-08-06T00:09:13;16.55;;;14.13;;
20861;SDS011;10591;52.532;13.348;2023-08-06T00:11:44;15.40;;;13.78;;
20861;SDS011;10591;52.532;13.348;2023-08-06T00:14:15;14.78;;;13.28;;
20861;SDS011;10591;52.532;13.348;2023-08-06T00:16:46;14.53;;;13.03;;
20861;SDS011;10591;52.532;13.348;2023-08-06T00:19:17;14.47;;;12.98;;
20861;SDS011;10591;52.532;13.348;2023-08-06T00:21:47;14.35;;;12.95;;
20861;SDS011;10591;52.532;13.348;2023-08-06T00:24:18;14.80;;;11.63;;
20861;SDS011;10591;52.532;13.348;2023-08-06T00:26:49;14.25;;;12.60;;
20861;SDS011;10591;52.532;13.348;2023-08-06T00:29:20;13.95;;;12.53;;
20861;SDS011;10591;52.532;13.348;2023-08-06T00:31:51;14.03;;;12.58;;
20861;SDS011;10591;52.532;13.348;2023-08-06T00:34:22;15.53;;;12.53;;
20861;SDS011;10591;52.532;13.348;2023-08-06T00:36:52;15.63;;;13.13;;
20861;SDS011;10591;52.532;13.348;2023-08-06T00:39:23;13.28;;;12.07;;
20861;SDS011;10591;52.532;13.348;2023-08-06T00:41:54;13.30;;;11.90;;
20861;SDS011;10591;52.532;13.348;2023-08-06T00:44:24;14.43;;;12.80;;
20861;SDS011;10591;52.532;13.348;2023-08-06T00:46:55;13.55;;;12.23;;
20861;SDS011;10591;52.532;13.348;2023-08-06T00:49:26;12.55;;;11.45;;
20861;SDS011;10591;52.532;13.348;2023-08-06T00:51:59;13.75;;;12.35;;
20861;SDS011;10591;52.532;13.348;2023-08-06T00:54:29;14.40;;;12.90;;
20861;SDS011;10591;52.532;13.348;2023-08-06T00:57:02;14.33;;;12.75;;
20861;SDS011;10591;52.532;13.348;2023-08-06T00:59:34;13.80;;;12.35;;
20861;SDS011;10591;52.532;13.348;2023-08-06T01:02:05;12.80;;;11.48;;
20861;SDS011;10591;52.532;13.348;2023-08-06T01:04:36;13.53;;;12.13;;
20861;SDS011;10591;52.532;13.348;2023-08-06T01:07:14;13.10;;;11.80;;
20861;SDS011;10591;52.532;13.348;2023-08-06T01:09:55;11.90;;;10.75;;
20861;SDS011;10591;52.532;13.348;2023-08-06T01:12:32;13.13;;;11.90;;
20861;SDS011;10591;52.532;13.348;2023-08-06T01:15:16;12.70;;;11.25;;
20861;SDS011;10591;52.532;13.348;2023-08-06T01:17:45;11.75;;;10.65;;
20861;SDS011;10591;52.532;13.348;2023-08-06T01:20:16;12.28;;;10.40;;
20861;SDS011;10591;52.532;13.348;2023-08-06T01:22:46;11.50;;;10.30;;
20861;SDS011;10591;52.532;13.348;2023-08-06T01:25:17;11.78;;;10.58;;
20861;SDS011;10591;52.532;13.348;2023-08-06T01:27:49;11.10;;;9.98;;
20861;SDS011;10591;52.532;13.348;2023-08-06T01:30:22;11.83;;;10.72;;
20861;SDS011;10591;52.532;13.348;2023-08-06T01:32:55;11.33;;;10.28;;
20861;SDS011;10591;52.532;13.348;2023-08-06T01:35:28;12.28;;;11.05;;
20861;SDS011;10591;52.532;13.348;2023-08-06T01:37:59;12.25;;;11.15;;
20861;SDS011;10591;52.532;13.348;2023-08-06T01:40:31;11.95;;;10.82;;
20861;SDS011;10591;52.532;13.348;2023-08-06T01:43:03;12.20;;;11.10;;
20861;SDS011;10591;52.532;13.348;2023-08-06T01:45:33;11.53;;;10.45;;
20861;SDS011;10591;52.532;13.348;2023-08-06T01:48:05;12.35;;;11.28;;
20861;SDS011;10591;52.532;13.348;2023-08-06T01:50:36;12.03;;;10.93;;
20861;SDS011;10591;52.532;13.348;2023-08-06T01:53:07;12.13;;;11.03;;
20861;SDS011;10591;52.532;13.348;2023-08-06T01:55:37;11.88;;;10.80;;
20861;SDS011;10591;52.532;13.348;2023-08-06T01:58:09;11.83;;;10.68;;
20861;SDS011;10591;52.532;13.348;2023-08-06T02:00:40;12.68;;;11.48;;
20861;SDS011;10591;52.532;13.348;2023-08-06T02:03:11;11.50;;;10.50;;
20861;SDS011;10591;52.532;13.348;2023-08-06T02:05:42;11.75;;;10.65;;
20861;SDS011;10591;52.532;13.348;2023-08-06T02:08:14;11.75;;;10.55;;
20861;SDS011;10591;52.532;13.348;2023-08-06T02:10:45;11.50;;;10.38;;
20861;SDS011;10591;52.532;13.348;2023-08-06T02:13:16;12.25;;;11.03;;
20861;SDS011;10591;52.532;13.348;2023-08-06T02:15:47;11.22;;;10.23;;
20861;SDS011;10591;52.532;13.348;2023-08-06T02:18:18;11.03;;;10.03;;
20861;SDS011;10591;52.532;13.348;2023-08-06T02:20:58;11.48;;;10.30;;
20861;SDS011;10591;52.532;13.348;2023-08-06T02:23:29;11.22;;;10.30;;
20861;SDS011;10591;52.532;13.348;2023-08-06T02:26:00;11.50;;;10.45;;
20861;SDS011;10591;52.532;13.348;2023-08-06T02:28:32;11.65;;;10.55;;
20861;SDS011;10591;52.532;13.348;2023-08-06T02:31:05;12.70;;;11.57;;
20861;SDS011;10591;52.532;13.348;2023-08-06T02:33:36;11.55;;;10.50;;
20861;SDS011;10591;52.532;13.348;2023-08-06T02:36:06;12.10;;;11.00;;
20861;SDS011;10591;52.532;13.348;2023-08-06T02:38:37;11.28;;;10.28;;
20861;SDS011;10591;52.532;13.348;2023-08-06T02:41:08;11.68;;;10.60;;
20861;SDS011;10591;52.532;13.348;2023-08-06T02:43:42;11.18;;;10.13;;
20861;SDS011;10591;52.532;13.348;2023-08-06T02:46:13;12.82;;;11.73;;
20861;SDS011;10591;52.532;13.348;2023-08-06T02:48:43;12.40;;;11.28;;
20861;SDS011;10591;52.532;13.348;2023-08-06T02:51:14;13.08;;;11.97;;
20861;SDS011;10591;52.532;13.348;2023-08-06T02:53:45;12.28;;;11.18;;
20861;SDS011;10591;52.532;13.348;2023-08-06T02:56:17;11.70;;;10.68;;
20861;SDS011;10591;52.532;13.348;2023-08-06T02:58:48;13.03;;;11.83;;
20861;SDS011;10591;52.532;13.348;2023-08-06T03:01:18;12.85;;;11.75;;
20861;SDS011;10591;52.532;13.348;2023-08-06T03:03:49;13.05;;;11.85;;
20861;SDS011;10591;52.532;13.348;2023-08-06T03:06:20;13.55;;;12.35;;
20861;SDS011;10591;52.532;13.348;2023-08-06T03:08:51;13.10;;;11.90;;
20861;SDS011;10591;52.532;13.348;2023-08-06T03:11:21;13.28;;;12.00;;
20861;SDS011;10591;52.532;13.348;2023-08-06T03:13:52;14.43;;;13.05;;
20861;SDS011;10591;52.532;13.348;2023-08-06T03:16:23;13.22;;;12.00;;
20861;SDS011;10591;52.532;13.348;2023-08-06T03:18:53;13.68;;;12.35;;
20861;SDS011;10591;52.532;13.348;2023-08-06T03:21:27;13.70;;;12.40;;
20861;SDS011;10591;52.532;13.348;2023-08-06T03:23:57;13.30;;;12.00;;
20861;SDS011;10591;52.532;13.348;2023-08-06T03:26:28;14.00;;;12.68;;
20861;SDS011;10591;52.532;13.348;2023-08-06T03:28:58;13.85;;;12.55;;
20861;SDS011;10591;52.532;13.348;2023-08-06T03:31:29;14.20;;;12.80;;
20861;SDS011;10591;52.532;13.348;2023-08-06T03:34:00;13.93;;;12.35;;
20861;SDS011;10591;52.532;13.348;2023-08-06T03:36:31;14.30;;;12.88;;
20861;SDS011;10591;52.532;13.348;2023-08-06T03:39:01;13.00;;;11.65;;
20861;SDS011;10591;52.532;13.348;2023-08-06T03:41:32;13.50;;;12.20;;
20861;SDS011;10591;52.532;13.348;2023-08-06T03:44:03;14.53;;;13.03;;
20861;SDS011;10591;52.532;13.348;2023-08-06T03:46:34;14.98;;;13.48;;
20861;SDS011;10591;52.532;13.348;2023-08-06T03:49:05;13.72;;;12.40;;
20861;SDS011;10591;52.532;13.348;2023-08-06T03:51:35;13.58;;;12.25;;
20861;SDS011;10591;52.532;13.348;2023-08-06T03:54:06;13.35;;;12.05;;
20861;SDS011;10591;52.532;13.348;2023-08-06T03:56:38;14.28;;;12.88;;
20861;SDS011;10591;52.532;13.348;2023-08-06T03:59:08;12.65;;;11.43;;
20861;SDS011;10591;52.532;13.348;2023-08-06T04:01:39;13.00;;;11.70;;
20861;SDS011;10591;52.532;13.348;2023-08-06T04:04:09;12.45;;;11.25;;
20861;SDS011;10591;52.532;13.348;2023-08-06T04:06:40;13.22;;;11.83;;
20861;SDS011;10591;52.532;13.348;2023-08-06T04:09:11;12.25;;;11.05;;
20861;SDS011;10591;52.532;13.348;2023-08-06T04:11:42;11.65;;;10.55;;
20861;SDS011;10591;52.532;13.348;2023-08-06T04:14:12;11.15;;;10.15;;
20861;SDS011;10591;52.532;13.348;2023-08-06T04:16:43;10.48;;;9.48;;
20861;SDS011;10591;52.532;13.348;2023-08-06T04:19:14;12.47;;;11.25;;
20861;SDS011;10591;52.532;13.348;2023-08-06T04:21:46;11.22;;;10.18;;
20861;SDS011;10591;52.532;13.348;2023-08-06T04:24:17;12.15;;;11.10;;
20861;SDS011;10591;52.532;13.348;2023-08-06T04:26:48;11.55;;;10.45;;
20861;SDS011;10591;52.532;13.348;2023-08-06T04:29:20;11.57;;;10.50;;
20861;SDS011;10591;52.532;13.348;2023-08-06T04:31:52;12.10;;;11.00;;
20861;SDS011;10591;52.532;13.348;2023-08-06T04:34:25;10.85;;;9.85;;
20861;SDS011;10591;52.532;13.348;2023-08-06T04:36:56;11.63;;;10.53;;
20861;SDS011;10591;52.532;13.348;2023-08-06T04:39:26;11.12;;;10.13;;
20861;SDS011;10591;52.532;13.348;2023-08-06T04:41:57;11.88;;;10.78;;
20861;SDS011;10591;52.532;13.348;2023-08-06T04:44:27;11.33;;;10.32;;
20861;SDS011;10591;52.532;13.348;2023-08-06T04:46:58;10.60;;;9.63;;
20861;SDS011;10591;52.532;13.348;2023-08-06T04:49:29;9.45;;;8.65;;
20861;SDS011;10591;52.532;13.348;2023-08-06T04:51:59;11.18;;;10.08;;
20861;SDS011;10591;52.532;13.348;2023-08-06T04:54:31;10.53;;;9.43;;
20861;SDS011;10591;52.532;13.348;2023-08-06T04:57:01;10.20;;;9.30;;
20861;SDS011;10591;52.532;13.348;2023-08-06T04:59:36;9.93;;;8.93;;
20861;SDS011;10591;52.532;13.348;2023-08-06T05:02:06;9.03;;;8.23;;
20861;SDS011;10591;52.532;13.348;2023-08-06T05:04:39;9.35;;;8.55;;
20861;SDS011;10591;52.532;13.348;2023-08-06T05:07:10;9.60;;;8.73;;
20861;SDS011;10591;52.532;13.348;2023-08-06T05:09:41;9.70;;;8.80;;
20861;SDS011;10591;52.532;13.348;2023-08-06T05:12:11;9.70;;;8.80;;
20861;SDS011;10591;52.532;13.348;2023-08-06T05:14:42;9.43;;;8.63;;
20861;SDS011;10591;52.532;13.348;2023-08-06T05:17:15;10.08;;;9.10;;
20861;SDS011;10591;52.532;13.348;2023-08-06T05:19:48;9.40;;;8.50;;
20861;SDS011;10591;52.532;13.348;2023-08-06T05:22:19;9.93;;;9.08;;
20861;SDS011;10591;52.532;13.348;2023-08-06T05:24:50;8.88;;;8.08;;
20861;SDS011;10591;52.532;13.348;2023-08-06T05:27:21;9.23;;;8.43;;
20861;SDS011;10591;52.532;13.348;2023-08-06T05:29:54;8.85;;;8.03;;
20861;SDS011;10591;52.532;13.348;2023-08-06T05:32:28;9.15;;;8.35;;
20861;SDS011;10591;52.532;13.348;2023-08-06T05:34:59;9.53;;;8.73;;
20861;SDS011;10591;52.532;13.348;2023-08-06T05:37:30;9.13;;;8.33;;
20861;SDS011;10591;52.532;13.348;2023-08-06T05:40:01;10.32;;;8.65;;
20861;SDS011;10591;52.532;13.348;2023-08-06T05:42:33;9.60;;;8.80;;
20861;SDS011;10591;52.532;13.348;2023-08-06T05:45:06;9.95;;;9.10;;
20861;SDS011;10591;52.532;13.348;2023-08-06T05:47:39;9.80;;;8.90;;
20861;SDS011;10591;52.532;13.348;2023-08-06T05:50:10;9.50;;;8.53;;
20861;SDS011;10591;52.532;13.348;2023-08-06T05:52:41;9.03;;;8.23;;
20861;SDS011;10591;52.532;13.348;2023-08-06T05:55:12;10.10;;;9.20;;
20861;SDS011;10591;52.532;13.348;2023-08-06T05:57:42;9.23;;;8.45;;
20861;SDS011;10591;52.532;13.348;2023-08-06T06:00:13;9.25;;;8.45;;
20861;SDS011;10591;52.532;13.348;2023-08-06T06:02:45;8.53;;;7.83;;
20861;SDS011;10591;52.532;13.348;2023-08-06T06:05:16;9.60;;;8.78;;
20861;SDS011;10591;52.532;13.348;2023-08-06T06:07:46;9.60;;;8.70;;
20861;SDS011;10591;52.532;13.348;2023-08-06T06:10:17;9.48;;;8.58;;
20861;SDS011;10591;52.532;13.348;2023-08-06T06:12:47;9.45;;;8.55;;
20861;SDS011;10591;52.532;13.348;2023-08-06T06:15:18;8.70;;;7.97;;
20861;SDS011;10591;52.532;13.348;2023-08-06T06:17:49;8.93;;;8.13;;
20861;SDS011;10591;52.532;13.348;2023-08-06T06:20:20;9.80;;;8.68;;
20861;SDS011;10591;52.532;13.348;2023-08-06T06:22:50;9.93;;;9.03;;
20861;SDS011;10591;52.532;13.348;2023-08-06T06:25:21;10.00;;;9.20;;
20861;SDS011;10591;52.532;13.348;2023-08-06T06:27:52;9.65;;;8.85;;
20861;SDS011;10591;52.532;13.348;2023-08-06T06:30:23;9.25;;;8.45;;
20861;SDS011;10591;52.532;13.348;2023-08-06T06:32:54;9.95;;;9.13;;
20861;SDS011;10591;52.532;13.348;2023-08-06T06:35:24;9.40;;;8.53;;
20861;SDS011;10591;52.532;13.348;2023-08-06T06:37:57;9.85;;;8.95;;
20861;SDS011;10591;52.532;13.348;2023-08-06T06:40:27;9.58;;;8.78;;
20861;SDS011;10591;52.532;13.348;2023-08-06T06:42:58;9.85;;;8.95;;
20861;SDS011;10591;52.532;13.348;2023-08-06T06:45:29;9.18;;;8.38;;
20861;SDS011;10591;52.532;13.348;2023-08-06T06:48:02;9.93;;;9.03;;
20861;SDS011;10591;52.532;13.348;2023-08-06T06:50:33;10.03;;;9.23;;
20861;SDS011;10591;52.532;13.348;2023-08-06T06:53:07;9.45;;;8.65;;
20861;SDS011;10591;52.532;13.348;2023-08-06T06:55:38;9.28;;;8.58;;
20861;SDS011;10591;52.532;13.348;2023-08-06T06:58:09;9.75;;;8.85;;
20861;SDS011;10591;52.532;13.348;2023-08-06T07:00:41;9.95;;;9.10;;
20861;SDS011;10591;52.532;13.348;2023-08-06T07:03:12;9.83;;;8.93;;
20861;SDS011;10591;52.532;13.348;2023-08-06T07:05:46;9.58;;;8.78;;
20861;SDS011;10591;52.532;13.348;2023-08-06T07:08:18;9.43;;;8.53;;
20861;SDS011;10591;52.532;13.348;2023-08-06T07:10:49;9.60;;;8.70;;
20861;SDS011;10591;52.532;13.348;2023-08-06T07:13:21;8.98;;;8.23;;
20861;SDS011;10591;52.532;13.348;2023-08-06T07:15:52;9.55;;;8.75;;
20861;SDS011;10591;52.532;13.348;2023-08-06T07:18:24;8.75;;;8.03;;
20861;SDS011;10591;52.532;13.348;2023-08-06T07:20:55;9.18;;;8.48;;
20861;SDS011;10591;52.532;13.348;2023-08-06T07:23:26;9.10;;;8.38;;
20861;SDS011;10591;52.532;13.348;2023-08-06T07:25:56;8.60;;;7.90;;
20861;SDS011;10591;52.532;13.348;2023-08-06T07:28:27;9.20;;;8.40;;
20861;SDS011;10591;52.532;13.348;2023-08-06T07:30:58;8.75;;;7.97;;
20861;SDS011;10591;52.532;13.348;2023-08-06T07:33:29;8.75;;;8.00;;
20861;SDS011;10591;52.532;13.348;2023-08-06T07:36:06;9.13;;;8.43;;
20861;SDS011;10591;52.532;13.348;2023-08-06T07:38:36;8.40;;;7.70;;
20861;SDS011;10591;52.532;13.348;2023-08-06T07:41:08;8.83;;;8.13;;
20861;SDS011;10591;52.532;13.348;2023-08-06T07:43:39;8.98;;;8.20;;
20861;SDS011;10591;52.532;13.348;2023-08-06T07:46:11;9.38;;;8.45;;
20861;SDS011;10591;52.532;13.348;2023-08-06T07:48:42;9.13;;;8.38;;
20861;SDS011;10591;52.532;13.348;2023-08-06T07:51:12;8.75;;;8.05;;
20861;SDS011;10591;52.532;13.348;2023-08-06T07:53:45;9.90;;;9.10;;
20861;SDS011;10591;52.532;13.348;2023-08-06T07:56:16;10.10;;;9.20;;
20861;SDS011;10591;52.532;13.348;2023-08-06T07:58:47;11.18;;;10.15;;
20861;SDS011;10591;52.532;13.348;2023-08-06T08:01:17;11.60;;;10.53;;
20861;SDS011;10591;52.532;13.348;2023-08-06T08:03:50;10.40;;;9.40;;
20861;SDS011;10591;52.532;13.348;2023-08-06T08:06:21;10.80;;;9.80;;
20861;SDS011;10591;52.532;13.348;2023-08-06T08:08:52;10.55;;;9.65;;
20861;SDS011;10591;52.532;13.348;2023-08-06T08:11:22;11.45;;;10.38;;
20861;SDS011;10591;52.532;13.348;2023-08-06T08:13:57;11.57;;;10.58;;
20861;SDS011;10591;52.532;13.348;2023-08-06T08:16:30;10.53;;;9.65;;
20861;SDS011;10591;52.532;13.348;2023-08-06T08:19:03;11.28;;;10.28;;
20861;SDS011;10591;52.532;13.348;2023-08-06T08:21:33;10.85;;;9.95;;
20861;SDS011;10591;52.532;13.348;2023-08-06T08:24:04;12.50;;;11.25;;
20861;SDS011;10591;52.532;13.348;2023-08-06T08:26:35;11.97;;;10.95;;
20861;SDS011;10591;52.532;13.348;2023-08-06T08:29:06;11.20;;;10.30;;
20861;SDS011;10591;52.532;13.348;2023-08-06T08:31:37;12.58;;;11.35;;
20861;SDS011;10591;52.532;13.348;2023-08-06T08:34:08;12.18;;;11.08;;
20861;SDS011;10591;52.532;13.348;2023-08-06T08:36:40;11.38;;;10.38;;
20861;SDS011;10591;52.532;13.348;2023-08-06T08:39:11;12.05;;;10.90;;
20861;SDS011;10591;52.532;13.348;2023-08-06T08:41:42;12.50;;;11.45;;
20861;SDS011;10591;52.532;13.348;2023-08-06T08:44:13;11.95;;;10.85;;
20861;SDS011;10591;52.532;13.348;2023-08-06T08:46:47;11.65;;;10.65;;
20861;SDS011;10591;52.532;13.348;2023-08-06T08:49:19;12.33;;;11.22;;
20861;SDS011;10591;52.532;13.348;2023-08-06T08:51:53;13.62;;;12.53;;
20861;SDS011;10591;52.532;13.348;2023-08-06T08:54:24;11.63;;;10.63;;
20861;SDS011;10591;52.532;13.348;2023-08-06T08:56:56;13.20;;;11.95;;
20861;SDS011;10591;52.532;13.348;2023-08-06T08:59:28;13.03;;;11.73;;
20861;SDS011;10591;52.532;13.348;2023-08-06T09:02:00;14.13;;;12.93;;
20861;SDS011;10591;52.532;13.348;2023-08-06T09:04:32;13.10;;;12.00;;
20861;SDS011;10591;52.532;13.348;2023-08-06T09:07:05;12.95;;;11.85;;
20861;SDS011;10591;52.532;13.348;2023-08-06T09:09:40;13.30;;;12.10;;
20861;SDS011;10591;52.532;13.348;2023-08-06T09:12:15;13.90;;;12.70;;
20861;SDS011;10591;52.532;13.348;2023-08-06T09:14:46;14.43;;;13.15;;
20861;SDS011;10591;52.532;13.348;2023-08-06T09:17:19;13.40;;;12.30;;
20861;SDS011;10591;52.532;13.348;2023-08-06T09:19:50;13.00;;;11.70;;
20861;SDS011;10591;52.532;13.348;2023-08-06T09:22:20;14.35;;;13.13;;
20861;SDS011;10591;52.532;13.348;2023-08-06T09:24:52;14.20;;;13.00;;
20861;SDS011;10591;52.532;13.348;2023-08-06T09:27:25;14.80;;;13.28;;
20861;SDS011;10591;52.532;13.348;2023-08-06T09:29:56;13.78;;;12.58;;
20861;SDS011;10591;52.532;13.348;2023-08-06T09:32:45;14.50;;;13.22;;
20861;SDS011;10591;52.532;13.348;2023-08-06T09:35:17;13.45;;;12.23;;
20861;SDS011;10591;52.532;13.348;2023-08-06T09:37:49;13.93;;;12.58;;
20861;SDS011;10591;52.532;13.348;2023-08-06T09:40:32;13.85;;;12.73;;
20861;SDS011;10591;52.532;13.348;2023-08-06T09:43:03;14.40;;;13.10;;
20861;SDS011;10591;52.532;13.348;2023-08-06T09:45:37;14.83;;;13.50;;
20861;SDS011;10591;52.532;13.348;2023-08-06T09:48:09;13.85;;;12.65;;
20861;SDS011;10591;52.532;13.348;2023-08-06T09:50:43;14.28;;;13.03;;
20861;SDS011;10591;52.532;13.348;2023-08-06T09:53:16;14.60;;;13.30;;
20861;SDS011;10591;52.532;13.348;2023-08-06T09:55:48;14.93;;;13.62;;
20861;SDS011;10591;52.532;13.348;2023-08-06T09:58:20;14.20;;;13.00;;
20861;SDS011;10591;52.532;13.348;2023-08-06T10:00:52;15.03;;;13.68;;
20861;SDS011;10591;52.532;13.348;2023-08-06T10:03:24;14.60;;;13.30;;
20861;SDS011;10591;52.532;13.348;2023-08-06T10:05:57;15.48;;;14.03;;
20861;SDS011;10591;52.532;13.348;2023-08-06T10:08:30;15.68;;;14.28;;
20861;SDS011;10591;52.532;13.348;2023-08-06T10:11:02;16.73;;;15.13;;
20861;SDS011;10591;52.532;13.348;2023-08-06T10:13:34;16.27;;;14.78;;
20861;SDS011;10591;52.532;13.348;2023-08-06T10:16:06;16.95;;;15.38;;
20861;SDS011;10591;52.532;13.348;2023-08-06T10:18:37;16.70;;;15.20;;
20861;SDS011;10591;52.532;13.348;2023-08-06T10:21:11;16.10;;;14.70;;
20861;SDS011;10591;52.532;13.348;2023-08-06T10:23:42;14.93;;;13.62;;
20861;SDS011;10591;52.532;13.348;2023-08-06T10:26:13;16.17;;;14.78;;
20861;SDS011;10591;52.532;13.348;2023-08-06T10:28:46;16.42;;;14.83;;
20861;SDS011;10591;52.532;13.348;2023-08-06T10:31:18;15.98;;;14.47;;
20861;SDS011;10591;52.532;13.348;2023-08-06T10:33:49;17.07;;;15.48;;
20861;SDS011;10591;52.532;13.348;2023-08-06T10:36:20;16.97;;;15.38;;
20861;SDS011;10591;52.532;13.348;2023-08-06T10:38:50;15.88;;;14.47;;
20861;SDS011;10591;52.532;13.348;2023-08-06T10:41:23;16.45;;;14.95;;
20861;SDS011;10591;52.532;13.348;2023-08-06T10:44:05;15.40;;;13.90;;
20861;SDS011;10591;52.532;13.348;2023-08-06T10:46:40;12.93;;;11.83;;
20861;SDS011;10591;52.532;13.348;2023-08-06T10:49:11;14.38;;;13.08;;
20861;SDS011;10591;52.532;13.348;2023-08-06T10:51:45;12.73;;;11.55;;
20861;SDS011;10591;52.532;13.348;2023-08-06T10:54:17;13.40;;;12.20;;
20861;SDS011;10591;52.532;13.348;2023-08-06T10:56:48;12.85;;;11.70;;
20861;SDS011;10591;52.532;13.348;2023-08-06T10:59:21;14.07;;;12.70;;
20861;SDS011;10591;52.532;13.348;2023-08-06T11:01:52;14.95;;;13.45;;
20861;SDS011;10591;52.532;13.348;2023-08-06T11:04:24;14.68;;;13.38;;
20861;SDS011;10591;52.532;13.348;2023-08-06T11:06:56;15.18;;;13.75;;
20861;SDS011;10591;52.532;13.348;2023-08-06T11:09:28;14.58;;;13.20;;
20861;SDS011;10591;52.532;13.348;2023-08-06T11:11:59;13.43;;;12.15;;
20861;SDS011;10591;52.532;13.348;2023-08-06T11:14:31;12.98;;;11.88;;
20861;SDS011;10591;52.532;13.348;2023-08-06T11:17:03;13.75;;;12.55;;
20861;SDS011;10591;52.532;13.348;2023-08-06T11:19:35;13.90;;;12.60;;
20861;SDS011;10591;52.532;13.348;2023-08-06T11:22:05;9.45;;;8.55;;
20861;SDS011;10591;52.532;13.348;2023-08-06T11:24:37;9.08;;;8.18;;
20861;SDS011;10591;52.532;13.348;2023-08-06T11:27:12;7.50;;;6.92;;
20861;SDS011;10591;52.532;13.348;2023-08-06T11:29:43;9.00;;;8.30;;
20861;SDS011;10591;52.532;13.348;2023-08-06T11:32:15;7.60;;;6.95;;
20861;SDS011;10591;52.532;13.348;2023-08-06T11:34:46;8.00;;;7.30;;
20861;SDS011;10591;52.532;13.348;2023-08-06T11:37:20;7.47;;;6.78;;
20861;SDS011;10591;52.532;13.348;2023-08-06T11:39:51;6.97;;;6.47;;
20861;SDS011;10591;52.532;13.348;2023-08-06T11:42:22;8.03;;;7.25;;
20861;SDS011;10591;52.532;13.348;2023-08-06T11:44:56;8.58;;;7.87;;
20861;SDS011;10591;52.532;13.348;2023-08-06T11:47:27;9.85;;;8.93;;
20861;SDS011;10591;52.532;13.348;2023-08-06T11:49:58;12.50;;;11.20;;
20861;SDS011;10591;52.532;13.348;2023-08-06T11:52:30;11.68;;;10.58;;
20861;SDS011;10591;52.532;13.348;2023-08-06T11:55:03;10.68;;;9.75;;
20861;SDS011;10591;52.532;13.348;2023-08-06T11:57:37;10.68;;;9.78;;
20861;SDS011;10591;52.532;13.348;2023-08-06T12:00:13;11.45;;;10.45;;
20861;SDS011;10591;52.532;13.348;2023-08-06T12:02:50;11.88;;;10.75;;
20861;SDS011;10591;52.532;13.348;2023-08-06T12:05:23;12.85;;;11.55;;
20861;SDS011;10591;52.532;13.348;2023-08-06T12:07:57;11.78;;;10.78;;
20861;SDS011;10591;52.532;13.348;2023-08-06T12:10:30;12.07;;;10.98;;
20861;SDS011;10591;52.532;13.348;2023-08-06T12:13:02;11.88;;;10.78;;
20861;SDS011;10591;52.532;13.348;2023-08-06T12:15:33;13.50;;;12.30;;
20861;SDS011;10591;52.532;13.348;2023-08-06T12:18:03;11.90;;;10.90;;
20861;SDS011;10591;52.532;13.348;2023-08-06T12:20:35;12.98;;;11.83;;
20861;SDS011;10591;52.532;13.348;2023-08-06T12:23:07;12.88;;;11.68;;
20861;SDS011;10591;52.532;13.348;2023-08-06T12:25:38;13.72;;;12.53;;
20861;SDS011;10591;52.532;13.348;2023-08-06T12:28:09;13.70;;;12.50;;
20861;SDS011;10591;52.532;13.348;2023-08-06T12:30:41;13.98;;;12.68;;
20861;SDS011;10591;52.532;13.348;2023-08-06T12:33:13;13.53;;;12.33;;
20861;SDS011;10591;52.532;13.348;2023-08-06T12:35:44;14.30;;;13.00;;
20861;SDS011;10591;52.532;13.348;2023-08-06T12:38:16;14.28;;;12.05;;
20861;SDS011;10591;52.532;13.348;2023-08-06T12:40:52;13.85;;;12.47;;
20861;SDS011;10591;52.532;13.348;2023-08-06T12:43:19;14.05;;;12.58;;
20861;SDS011;10591;52.532;13.348;2023-08-06T12:45:49;13.22;;;12.00;;
20861;SDS011;10591;52.532;13.348;2023-08-06T12:48:22;13.65;;;12.28;;
20861;SDS011;10591;52.532;13.348;2023-08-06T12:50:53;14.15;;;12.78;;
20861;SDS011;10591;52.532;13.348;2023-08-06T12:53:24;13.28;;;12.07;;
20861;SDS011;10591;52.532;13.348;2023-08-06T12:55:54;13.40;;;12.15;;
20861;SDS011;10591;52.532;13.348;2023-08-06T12:58:25;13.98;;;12.58;;
20861;SDS011;10591;52.532;13.348;2023-08-06T13:00:56;13.58;;;12.18;;
20861;SDS011;10591;52.532;13.348;2023-08-06T13:03:27;13.53;;;12.23;;
20861;SDS011;10591;52.532;13.348;2023-08-06T13:05:59;14.07;;;12.78;;
20861;SDS011;10591;52.532;13.348;2023-08-06T13:08:31;14.38;;;13.08;;
20861;SDS011;10591;52.532;13.348;2023-08-06T13:11:02;13.05;;;11.85;;
20861;SDS011;10591;52.532;13.348;2023-08-06T13:13:33;14.68;;;13.20;;
20861;SDS011;10591;52.532;13.348;2023-08-06T13:16:04;14.50;;;13.00;;
20861;SDS011;10591;52.532;13.348;2023-08-06T13:18:36;12.47;;;11.38;;
20861;SDS011;10591;52.532;13.348;2023-08-06T13:21:10;14.33;;;12.90;;
20861;SDS011;10591;52.532;13.348;2023-08-06T13:23:43;14.03;;;12.73;;
20861;SDS011;10591;52.532;13.348;2023-08-06T13:26:14;14.38;;;12.95;;
20861;SDS011;10591;52.532;13.348;2023-08-06T13:28:45;14.60;;;13.22;;
20861;SDS011;10591;52.532;13.348;2023-08-06T13:31:18;15.38;;;13.98;;
20861;SDS011;10591;52.532;13.348;2023-08-06T13:33:49;13.35;;;11.93;;
20861;SDS011;10591;52.532;13.348;2023-08-06T13:36:22;15.30;;;13.80;;
20861;SDS011;10591;52.532;13.348;2023-08-06T13:38:54;15.35;;;13.85;;
20861;SDS011;10591;52.532;13.348;2023-08-06T13:41:25;12.55;;;11.45;;
20861;SDS011;10591;52.532;13.348;2023-08-06T13:43:58;12.37;;;11.20;;
20861;SDS011;10591;52.532;13.348;2023-08-06T13:46:28;12.93;;;11.68;;
20861;SDS011;10591;52.532;13.348;2023-08-06T13:49:00;12.93;;;11.73;;
20861;SDS011;10591;52.532;13.348;2023-08-06T13:51:31;13.03;;;11.83;;
20861;SDS011;10591;52.532;13.348;2023-08-06T13:54:02;12.33;;;11.22;;
20861;SDS011;10591;52.532;13.348;2023-08-06T13:56:34;12.60;;;11.50;;
20861;SDS011;10591;52.532;13.348;2023-08-06T13:59:08;12.40;;;11.30;;
20861;SDS011;10591;52.532;13.348;2023-08-06T14:01:41;15.50;;;13.93;;
20861;SDS011;10591;52.532;13.348;2023-08-06T14:04:14;15.88;;;14.03;;
20861;SDS011;10591;52.532;13.348;2023-08-06T14:06:44;18.92;;;13.38;;
20861;SDS011;10591;52.532;13.348;2023-08-06T14:09:15;20.45;;;15.93;;
20861;SDS011;10591;52.532;13.348;2023-08-06T14:11:47;18.55;;;16.50;;
20861;SDS011;10591;52.532;13.348;2023-08-06T14:14:19;21.20;;;17.20;;
20861;SDS011;10591;52.532;13.348;2023-08-06T14:16:52;18.67;;;16.12;;
20861;SDS011;10591;52.532;13.348;2023-08-06T14:19:26;19.52;;;16.97;;
20861;SDS011;10591;52.532;13.348;2023-08-06T14:21:59;20.02;;;17.00;;
20861;SDS011;10591;52.532;13.348;2023-08-06T14:24:29;17.62;;;15.48;;
20861;SDS011;10591;52.532;13.348;2023-08-06T14:27:00;19.27;;;14.40;;
20861;SDS011;10591;52.532;13.348;2023-08-06T14:29:34;17.17;;;14.95;;
20861;SDS011;10591;52.532;13.348;2023-08-06T14:32:05;19.50;;;15.48;;
20861;SDS011;10591;52.532;13.348;2023-08-06T14:34:36;17.52;;;14.80;;
20861;SDS011;10591;52.532;13.348;2023-08-06T14:37:07;20.17;;;14.63;;
20861;SDS011;10591;52.532;13.348;2023-08-06T14:39:41;19.10;;;14.63;;
20861;SDS011;10591;52.532;13.348;2023-08-06T14:42:13;18.95;;;14.70;;